sensor_id;sensor_type;location;lat;lon;timestamp;pressure;altitude;pressure_sealevel;temperature;humidity
22018;BME280;11173;51.050;7.108;2022-11-03T00:01:37;99635.13;;;8.14;56.80
22018;BME280;11173;51.050;7.108;2022-11-03T00:06:40;99631.19;;;8.08;56.74
22018;BME280;11173;51.050;7.108;2022-11-03T00:11:42;99639.13;;;8.13;56.68
22018;BME280;11173;51.050;7.108;2022-11-03T00:16:44;99631.19;;;8.15;57.28
22018;BME280;11173;51.050;7.108;2022-11-03T00:21:45;99614.13;;;8.16;57.59
22018;BME280;11173;51.050;7.108;2022-11-03T00:26:45;99606.13;;;8.26;57.55
22018;BME280;11173;51.050;7.108;2022-11-03T00:31:46;99608.03;;;8.36;57.40
22018;BME280;11173;51.050;7.108;2022-11-03T00:36:46;99613.94;;;8.45;57.16
22018;BME280;11173;51.050;7.108;2022-11-03T00:41:46;99605.19;;;8.50;57.05
22018;BME280;11173;51.050;7.108;2022-11-03T00:46:46;99610.69;;;8.57;57.34
22018;BME280;11173;51.050;7.108;2022-11-03T00:51:47;99588.88;;;8.56;57.13
22018;BME280;11173;51.050;7.108;2022-11-03T00:56:47;99588.03;;;8.63;57.68
22018;BME280;11173;51.050;7.108;2022-11-03T01:01:48;99593.16;;;8.68;57.53
22018;BME280;11173;51.050;7.108;2022-11-03T01:06:50;99574.06;;;8.73;57.54
22018;BME280;11173;51.050;7.108;2022-11-03T01:16:56;99576.75;;;8.84;57.42
22018;BME280;11173;51.050;7.108;2022-11-03T01:21:57;99569.19;;;8.88;57.67
22018;BME280;11173;51.050;7.108;2022-11-03T01:32:54;99553.28;;;8.92;57.42
22018;BME280;11173;51.050;7.108;2022-11-03T01:37:54;99549.28;;;8.97;57.22
22018;BME280;11173;51.050;7.108;2022-11-03T01:43:13;99544.09;;;8.99;57.74
22018;BME280;11173;51.050;7.108;2022-11-03T01:48:17;99542.47;;;9.02;57.40
22018;BME280;11173;51.050;7.108;2022-11-03T01:53:20;99531.75;;;9.00;57.52
22018;BME280;11173;51.050;7.108;2022-11-03T01:58:25;99525.03;;;9.01;57.69
22018;BME280;11173;51.050;7.108;2022-11-03T02:03:32;99521.47;;;9.01;57.44
22018;BME280;11173;51.050;7.108;2022-11-03T02:08:42;99512.31;;;9.00;57.63
22018;BME280;11173;51.050;7.108;2022-11-03T02:13:44;99506.00;;;8.96;57.77
22018;BME280;11173;51.050;7.108;2022-11-03T02:18:45;99491.00;;;8.90;57.35
22018;BME280;11173;51.050;7.108;2022-11-03T02:24:02;99495.38;;;8.91;57.87
22018;BME280;11173;51.050;7.108;2022-11-03T02:29:08;99489.81;;;8.91;58.36
22018;BME280;11173;51.050;7.108;2022-11-03T02:34:16;99474.69;;;8.92;58.23
22018;BME280;11173;51.050;7.108;2022-11-03T02:39:21;99461.25;;;8.90;57.92
22018;BME280;11173;51.050;7.108;2022-11-03T02:44:25;99454.09;;;8.89;58.19
22018;BME280;11173;51.050;7.108;2022-11-03T02:49:26;99447.72;;;8.92;58.82
22018;BME280;11173;51.050;7.108;2022-11-03T02:54:53;99447.59;;;9.03;58.52
22018;BME280;11173;51.050;7.108;2022-11-03T03:00:02;99439.50;;;9.16;58.35
22018;BME280;11173;51.050;7.108;2022-11-03T03:05:07;99423.19;;;9.18;59.03
22018;BME280;11173;51.050;7.108;2022-11-03T03:10:21;99417.94;;;9.24;58.21
22018;BME280;11173;51.050;7.108;2022-11-03T03:15:46;99425.91;;;9.22;58.14
22018;BME280;11173;51.050;7.108;2022-11-03T03:20:54;99408.91;;;9.16;58.64
22018;BME280;11173;51.050;7.108;2022-11-03T03:26:08;99398.28;;;9.11;58.09
22018;BME280;11173;51.050;7.108;2022-11-03T03:31:12;99397.16;;;9.05;58.37
22018;BME280;11173;51.050;7.108;2022-11-03T03:36:17;99398.78;;;9.02;58.12
22018;BME280;11173;51.050;7.108;2022-11-03T03:41:19;99391.31;;;8.95;58.14
22018;BME280;11173;51.050;7.108;2022-11-03T03:46:26;99382.66;;;8.90;58.63
22018;BME280;11173;51.050;7.108;2022-11-03T03:51:30;99385.50;;;8.83;58.77
22018;BME280;11173;51.050;7.108;2022-11-03T04:01:41;99382.09;;;8.68;58.91
22018;BME280;11173;51.050;7.108;2022-11-03T04:06:41;99363.56;;;8.57;59.40
22018;BME280;11173;51.050;7.108;2022-11-03T04:11:42;99364.03;;;8.52;61.87
22018;BME280;11173;51.050;7.108;2022-11-03T04:17:00;99366.81;;;8.52;62.62
22018;BME280;11173;51.050;7.108;2022-11-03T04:22:19;99356.44;;;8.56;61.12
22018;BME280;11173;51.050;7.108;2022-11-03T04:27:32;99347.28;;;8.60;61.20
22018;BME280;11173;51.050;7.108;2022-11-03T04:32:33;99334.69;;;8.51;63.81
22018;BME280;11173;51.050;7.108;2022-11-03T04:37:34;99324.34;;;8.52;63.92
22018;BME280;11173;51.050;7.108;2022-11-03T04:42:34;99301.47;;;8.44;61.84
22018;BME280;11173;51.050;7.108;2022-11-03T04:47:34;99317.16;;;8.58;61.71
22018;BME280;11173;51.050;7.108;2022-11-03T04:52:35;99312.44;;;8.55;60.50
22018;BME280;11173;51.050;7.108;2022-11-03T04:57:35;99310.06;;;8.53;59.98
22018;BME280;11173;51.050;7.108;2022-11-03T05:02:36;99300.59;;;8.51;60.12
22018;BME280;11173;51.050;7.108;2022-11-03T05:07:36;99285.09;;;8.53;60.62
22018;BME280;11173;51.050;7.108;2022-11-03T05:12:36;99288.47;;;8.68;60.72
22018;BME280;11173;51.050;7.108;2022-11-03T05:17:37;99283.09;;;8.85;60.59
22018;BME280;11173;51.050;7.108;2022-11-03T05:22:37;99281.28;;;9.02;60.74
22018;BME280;11173;51.050;7.108;2022-11-03T05:27:37;99266.00;;;9.17;62.15
22018;BME280;11173;51.050;7.108;2022-11-03T05:32:38;99253.75;;;9.38;60.65
22018;BME280;11173;51.050;7.108;2022-11-03T05:37:40;99242.03;;;9.50;60.00
22018;BME280;11173;51.050;7.108;2022-11-03T05:42:43;99239.94;;;9.58;59.32
22018;BME280;11173;51.050;7.108;2022-11-03T05:47:46;99232.06;;;9.53;59.71
22018;BME280;11173;51.050;7.108;2022-11-03T05:52:49;99233.69;;;9.50;61.05
22018;BME280;11173;51.050;7.108;2022-11-03T05:57:50;99234.16;;;9.45;61.64
22018;BME280;11173;51.050;7.108;2022-11-03T06:02:51;99233.81;;;9.43;61.11
22018;BME280;11173;51.050;7.108;2022-11-03T06:07:53;99232.97;;;9.46;61.26
22018;BME280;11173;51.050;7.108;2022-11-03T06:13:03;99231.69;;;9.51;62.40
22018;BME280;11173;51.050;7.108;2022-11-03T06:18:22;99225.56;;;9.60;62.25
22018;BME280;11173;51.050;7.108;2022-11-03T06:23:24;99225.88;;;9.65;60.82
22018;BME280;11173;51.050;7.108;2022-11-03T06:28:33;99209.91;;;9.69;60.84
22018;BME280;11173;51.050;7.108;2022-11-03T06:33:34;99198.78;;;9.69;60.07
22018;BME280;11173;51.050;7.108;2022-11-03T06:38:35;99191.66;;;9.68;60.27
22018;BME280;11173;51.050;7.108;2022-11-03T06:43:40;99175.81;;;9.65;59.80
22018;BME280;11173;51.050;7.108;2022-11-03T06:48:41;99166.41;;;9.59;59.93
22018;BME280;11173;51.050;7.108;2022-11-03T06:53:41;99165.69;;;9.55;59.98
22018;BME280;11173;51.050;7.108;2022-11-03T06:58:41;99167.31;;;9.52;60.30
22018;BME280;11173;51.050;7.108;2022-11-03T07:03:42;99153.47;;;9.49;60.41
22018;BME280;11173;51.050;7.108;2022-11-03T07:08:45;99142.34;;;9.49;60.63
22018;BME280;11173;51.050;7.108;2022-11-03T07:13:47;99134.78;;;9.49;60.82
22018;BME280;11173;51.050;7.108;2022-11-03T07:18:49;99120.13;;;9.49;60.44
22018;BME280;11173;51.050;7.108;2022-11-03T07:23:49;99120.53;;;9.47;60.17
22018;BME280;11173;51.050;7.108;2022-11-03T07:28:50;99112.63;;;9.46;60.25
22018;BME280;11173;51.050;7.108;2022-11-03T07:33:57;99120.13;;;9.49;60.26
22018;BME280;11173;51.050;7.108;2022-11-03T07:38:59;99125.25;;;9.50;60.40
22018;BME280;11173;51.050;7.108;2022-11-03T07:44:01;99115.69;;;9.51;61.18
22018;BME280;11173;51.050;7.108;2022-11-03T07:49:01;99117.94;;;9.60;61.10
22018;BME280;11173;51.050;7.108;2022-11-03T08:04:16;99099.63;;;9.99;61.30
22018;BME280;11173;51.050;7.108;2022-11-03T08:09:19;99089.00;;;10.14;61.39
22018;BME280;11173;51.050;7.108;2022-11-03T08:14:20;99092.13;;;10.36;61.67
22018;BME280;11173;51.050;7.108;2022-11-03T08:19:20;99086.38;;;10.60;61.65
22018;BME280;11173;51.050;7.108;2022-11-03T08:24:21;99098.03;;;10.87;61.25
22018;BME280;11173;51.050;7.108;2022-11-03T08:29:21;99092.28;;;11.11;61.17
22018;BME280;11173;51.050;7.108;2022-11-03T08:34:24;99081.34;;;11.33;60.74
22018;BME280;11173;51.050;7.108;2022-11-03T08:39:24;99076.50;;;11.50;60.22
22018;BME280;11173;51.050;7.108;2022-11-03T08:44:24;99058.72;;;11.60;59.99
22018;BME280;11173;51.050;7.108;2022-11-03T08:49:25;99056.72;;;11.73;60.08
22018;BME280;11173;51.050;7.108;2022-11-03T08:54:25;99040.13;;;11.83;59.87
22018;BME280;11173;51.050;7.108;2022-11-03T08:59:25;99039.69;;;11.97;60.17
22018;BME280;11173;51.050;7.108;2022-11-03T09:04:26;99025.63;;;12.13;59.78
22018;BME280;11173;51.050;7.108;2022-11-03T09:09:26;99014.53;;;12.36;60.34
22018;BME280;11173;51.050;7.108;2022-11-03T09:14:27;99012.31;;;12.56;60.02
22018;BME280;11173;51.050;7.108;2022-11-03T09:19:27;99011.69;;;12.87;59.97
22018;BME280;11173;51.050;7.108;2022-11-03T09:24:27;98985.66;;;13.12;59.22
22018;BME280;11173;51.050;7.108;2022-11-03T09:29:28;98971.59;;;13.25;58.77
22018;BME280;11173;51.050;7.108;2022-11-03T09:34:28;98964.13;;;13.44;58.34
22018;BME280;11173;51.050;7.108;2022-11-03T09:39:29;98948.00;;;13.57;58.12
22018;BME280;11173;51.050;7.108;2022-11-03T09:44:33;98935.63;;;13.67;58.32
22018;BME280;11173;51.050;7.108;2022-11-03T09:49:35;98903.44;;;13.63;58.02
22018;BME280;11173;51.050;7.108;2022-11-03T09:54:36;98907.13;;;13.82;57.69
22018;BME280;11173;51.050;7.108;2022-11-03T09:59:37;98880.84;;;13.88;57.71
22018;BME280;11173;51.050;7.108;2022-11-03T10:04:38;98896.44;;;13.99;57.62
22018;BME280;11173;51.050;7.108;2022-11-03T10:09:42;98886.03;;;14.08;57.44
22018;BME280;11173;51.050;7.108;2022-11-03T10:14:45;98871.13;;;14.11;57.19
22018;BME280;11173;51.050;7.108;2022-11-03T10:19:48;98849.78;;;14.14;57.28
22018;BME280;11173;51.050;7.108;2022-11-03T10:30:25;98842.78;;;14.19;56.25
22018;BME280;11173;51.050;7.108;2022-11-03T10:35:33;98840.94;;;14.25;57.02
22018;BME280;11173;51.050;7.108;2022-11-03T10:40:35;98832.53;;;14.25;56.62
22018;BME280;11173;51.050;7.108;2022-11-03T10:45:36;98810.75;;;14.29;56.77
22018;BME280;11173;51.050;7.108;2022-11-03T10:50:40;98793.31;;;14.34;56.67
22018;BME280;11173;51.050;7.108;2022-11-03T10:55:41;98780.22;;;14.31;56.02
22018;BME280;11173;51.050;7.108;2022-11-03T11:00:41;98757.84;;;14.22;56.23
22018;BME280;11173;51.050;7.108;2022-11-03T11:05:46;98749.75;;;14.24;56.46
22018;BME280;11173;51.050;7.108;2022-11-03T11:10:47;98747.88;;;14.21;56.63
22018;BME280;11173;51.050;7.108;2022-11-03T11:20:59;98734.97;;;14.14;55.87
22018;BME280;11173;51.050;7.108;2022-11-03T11:36:23;98716.13;;;14.05;56.48
22018;BME280;11173;51.050;7.108;2022-11-03T11:47:02;98734.03;;;14.08;55.70
22018;BME280;11173;51.050;7.108;2022-11-03T11:52:02;98737.16;;;14.10;56.24
22018;BME280;11173;51.050;7.108;2022-11-03T11:57:16;98713.63;;;14.17;55.40
22018;BME280;11173;51.050;7.108;2022-11-03T12:02:21;98697.00;;;14.13;55.58
22018;BME280;11173;51.050;7.108;2022-11-03T12:07:33;98670.56;;;14.14;55.34
22018;BME280;11173;51.050;7.108;2022-11-03T12:12:33;98641.94;;;14.10;55.30
22018;BME280;11173;51.050;7.108;2022-11-03T12:17:34;98634.91;;;14.05;55.06
22018;BME280;11173;51.050;7.108;2022-11-03T12:22:39;98613.31;;;13.97;53.84
22018;BME280;11173;51.050;7.108;2022-11-03T12:27:41;98606.34;;;13.83;54.75
22018;BME280;11173;51.050;7.108;2022-11-03T12:32:42;98596.38;;;13.63;53.86
22018;BME280;11173;51.050;7.108;2022-11-03T12:37:43;98590.97;;;13.60;55.23
22018;BME280;11173;51.050;7.108;2022-11-03T12:42:43;98580.69;;;13.57;55.49
22018;BME280;11173;51.050;7.108;2022-11-03T12:47:44;98574.47;;;13.52;55.62
22018;BME280;11173;51.050;7.108;2022-11-03T12:52:45;98562.50;;;13.43;55.13
22018;BME280;11173;51.050;7.108;2022-11-03T12:57:45;98545.72;;;13.43;55.38
22018;BME280;11173;51.050;7.108;2022-11-03T13:02:46;98533.31;;;13.35;55.20
22018;BME280;11173;51.050;7.108;2022-11-03T13:07:46;98513.56;;;13.29;55.21
22018;BME280;11173;51.050;7.108;2022-11-03T13:12:47;98495.69;;;13.17;55.05
22018;BME280;11173;51.050;7.108;2022-11-03T13:17:47;98471.03;;;13.16;55.61
22018;BME280;11173;51.050;7.108;2022-11-03T13:22:47;98470.25;;;13.06;55.24
22018;BME280;11173;51.050;7.108;2022-11-03T13:27:48;98469.94;;;13.04;55.65
22018;BME280;11173;51.050;7.108;2022-11-03T13:32:53;98443.84;;;12.98;55.52
22018;BME280;11173;51.050;7.108;2022-11-03T13:37:53;98423.34;;;12.91;55.43
22018;BME280;11173;51.050;7.108;2022-11-03T13:42:53;98410.31;;;12.88;55.91
22018;BME280;11173;51.050;7.108;2022-11-03T13:47:54;98402.38;;;12.87;55.63
22018;BME280;11173;51.050;7.108;2022-11-03T13:52:54;98397.75;;;12.84;55.89
22018;BME280;11173;51.050;7.108;2022-11-03T13:57:54;98382.06;;;12.86;56.15
22018;BME280;11173;51.050;7.108;2022-11-03T14:02:55;98374.47;;;12.78;55.34
22018;BME280;11173;51.050;7.108;2022-11-03T14:07:55;98364.16;;;12.65;55.79
22018;BME280;11173;51.050;7.108;2022-11-03T14:12:55;98362.16;;;12.57;55.62
22018;BME280;11173;51.050;7.108;2022-11-03T14:17:56;98349.75;;;12.58;55.68
22018;BME280;11173;51.050;7.108;2022-11-03T14:22:56;98341.69;;;12.50;55.97
22018;BME280;11173;51.050;7.108;2022-11-03T14:27:57;98332.03;;;12.51;56.02
22018;BME280;11173;51.050;7.108;2022-11-03T14:32:57;98325.22;;;12.52;56.06
22018;BME280;11173;51.050;7.108;2022-11-03T14:37:57;98319.94;;;12.45;55.85
22018;BME280;11173;51.050;7.108;2022-11-03T14:42:58;98327.88;;;12.47;55.95
22018;BME280;11173;51.050;7.108;2022-11-03T14:47:59;98353.00;;;12.47;55.97
22018;BME280;11173;51.050;7.108;2022-11-03T14:53:00;98347.09;;;12.45;56.00
22018;BME280;11173;51.050;7.108;2022-11-03T14:58:00;98337.03;;;12.38;55.92
22018;BME280;11173;51.050;7.108;2022-11-03T15:03:01;98327.41;;;12.30;56.16
22018;BME280;11173;51.050;7.108;2022-11-03T15:08:01;98323.97;;;12.17;56.06
22018;BME280;11173;51.050;7.108;2022-11-03T15:13:02;98320.38;;;11.98;56.58
22018;BME280;11173;51.050;7.108;2022-11-03T15:18:02;98319.13;;;11.89;57.19
22018;BME280;11173;51.050;7.108;2022-11-03T15:23:04;98313.88;;;11.82;56.74
22018;BME280;11173;51.050;7.108;2022-11-03T15:28:05;98291.66;;;11.69;57.80
22018;BME280;11173;51.050;7.108;2022-11-03T15:33:06;98298.44;;;11.59;57.52
22018;BME280;11173;51.050;7.108;2022-11-03T15:38:06;98268.66;;;11.47;58.22
22018;BME280;11173;51.050;7.108;2022-11-03T15:43:07;98258.38;;;11.34;58.50
22018;BME280;11173;51.050;7.108;2022-11-03T15:48:08;98238.19;;;11.21;60.09
22018;BME280;11173;51.050;7.108;2022-11-03T15:53:08;98218.69;;;11.12;59.22
22018;BME280;11173;51.050;7.108;2022-11-03T15:58:09;98206.69;;;10.93;61.75
22018;BME280;11173;51.050;7.108;2022-11-03T16:03:09;98221.34;;;10.84;61.78
22018;BME280;11173;51.050;7.108;2022-11-03T16:08:09;98214.81;;;10.78;60.00
22018;BME280;11173;51.050;7.108;2022-11-03T16:13:10;98196.66;;;10.64;60.66
22018;BME280;11173;51.050;7.108;2022-11-03T16:18:10;98188.06;;;10.49;59.72
22018;BME280;11173;51.050;7.108;2022-11-03T16:23:11;98179.19;;;10.42;62.73
22018;BME280;11173;51.050;7.108;2022-11-03T16:28:11;98172.81;;;10.32;63.39
22018;BME280;11173;51.050;7.108;2022-11-03T16:33:12;98185.69;;;10.39;62.27
22018;BME280;11173;51.050;7.108;2022-11-03T16:38:12;98186.91;;;10.38;62.22
22018;BME280;11173;51.050;7.108;2022-11-03T16:43:14;98172.66;;;10.35;62.07
22018;BME280;11173;51.050;7.108;2022-11-03T16:48:14;98169.88;;;10.35;62.15
22018;BME280;11173;51.050;7.108;2022-11-03T16:53:15;98152.41;;;10.35;61.56
22018;BME280;11173;51.050;7.108;2022-11-03T16:58:15;98164.19;;;10.39;62.47
22018;BME280;11173;51.050;7.108;2022-11-03T17:03:16;98157.84;;;10.39;61.57
22018;BME280;11173;51.050;7.108;2022-11-03T17:08:16;98158.63;;;10.39;62.53
22018;BME280;11173;51.050;7.108;2022-11-03T17:13:17;98143.47;;;10.40;61.63
22018;BME280;11173;51.050;7.108;2022-11-03T17:18:18;98113.97;;;10.21;61.89
22018;BME280;11173;51.050;7.108;2022-11-03T17:23:18;98133.56;;;10.39;64.17
22018;BME280;11173;51.050;7.108;2022-11-03T17:28:19;98108.66;;;10.35;62.46
22018;BME280;11173;51.050;7.108;2022-11-03T17:33:19;98112.88;;;10.40;63.93
22018;BME280;11173;51.050;7.108;2022-11-03T17:38:26;98085.28;;;10.33;66.08
22018;BME280;11173;51.050;7.108;2022-11-03T17:43:27;98079.16;;;10.38;63.37
22018;BME280;11173;51.050;7.108;2022-11-03T17:48:29;98072.31;;;10.39;62.78
22018;BME280;11173;51.050;7.108;2022-11-03T17:53:31;98072.31;;;10.39;63.19
22018;BME280;11173;51.050;7.108;2022-11-03T17:58:33;98071.09;;;10.40;63.20
22018;BME280;11173;51.050;7.108;2022-11-03T18:03:35;98059.19;;;10.40;62.81
22018;BME280;11173;51.050;7.108;2022-11-03T18:08:36;98056.41;;;10.40;62.09
22018;BME280;11173;51.050;7.108;2022-11-03T18:13:36;98066.19;;;10.44;62.54
22018;BME280;11173;51.050;7.108;2022-11-03T18:18:42;98059.69;;;10.47;61.95
22018;BME280;11173;51.050;7.108;2022-11-03T18:23:43;98063.41;;;10.53;61.69
22018;BME280;11173;51.050;7.108;2022-11-03T18:28:43;98064.97;;;10.54;61.89
22018;BME280;11173;51.050;7.108;2022-11-03T18:33:44;98053.84;;;10.54;62.06
22018;BME280;11173;51.050;7.108;2022-11-03T18:38:45;98055.38;;;10.55;61.86
22018;BME280;11173;51.050;7.108;2022-11-03T18:43:47;98051.38;;;10.57;62.34
22018;BME280;11173;51.050;7.108;2022-11-03T18:48:48;98047.31;;;10.58;62.10
22018;BME280;11173;51.050;7.108;2022-11-03T18:53:48;98029.53;;;10.55;61.86
22018;BME280;11173;51.050;7.108;2022-11-03T18:58:50;98038.53;;;10.59;61.76
22018;BME280;11173;51.050;7.108;2022-11-03T19:03:52;98034.03;;;10.62;61.73
22018;BME280;11173;51.050;7.108;2022-11-03T19:08:56;98031.25;;;10.62;61.92
22018;BME280;11173;51.050;7.108;2022-11-03T19:13:58;98023.66;;;10.53;61.80
22018;BME280;11173;51.050;7.108;2022-11-03T19:18:59;98025.84;;;10.58;61.81
22018;BME280;11173;51.050;7.108;2022-11-03T19:24:00;98014.09;;;10.54;61.87
22018;BME280;11173;51.050;7.108;2022-11-03T19:29:03;98022.91;;;10.52;62.32
22018;BME280;11173;51.050;7.108;2022-11-03T19:34:11;98013.78;;;10.52;62.19
22018;BME280;11173;51.050;7.108;2022-11-03T19:39:23;98009.56;;;10.47;62.13
22018;BME280;11173;51.050;7.108;2022-11-03T19:44:25;98004.75;;;10.48;62.53
22018;BME280;11173;51.050;7.108;2022-11-03T19:49:25;97988.38;;;10.41;62.31
22018;BME280;11173;51.050;7.108;2022-11-03T19:54:26;97986.22;;;10.45;62.36
22018;BME280;11173;51.050;7.108;2022-11-03T19:59:26;97967.19;;;10.43;62.48
22018;BME280;11173;51.050;7.108;2022-11-03T20:04:27;97977.56;;;10.43;62.18
22018;BME280;11173;51.050;7.108;2022-11-03T20:09:27;97998.56;;;10.44;62.46
22018;BME280;11173;51.050;7.108;2022-11-03T20:14:28;97979.56;;;10.42;62.21
22018;BME280;11173;51.050;7.108;2022-11-03T20:19:28;97973.22;;;10.42;62.73
22018;BME280;11173;51.050;7.108;2022-11-03T20:24:29;97973.84;;;10.46;62.64
22018;BME280;11173;51.050;7.108;2022-11-03T20:29:31;97949.53;;;10.37;62.80
22018;BME280;11173;51.050;7.108;2022-11-03T20:34:31;97961.94;;;10.45;62.73
22018;BME280;11173;51.050;7.108;2022-11-03T20:39:32;97958.22;;;10.39;62.79
22018;BME280;11173;51.050;7.108;2022-11-03T20:44:32;97961.16;;;10.45;62.48
22018;BME280;11173;51.050;7.108;2022-11-03T20:49:32;97979.25;;;10.49;62.63
22018;BME280;11173;51.050;7.108;2022-11-03T20:54:33;97972.28;;;10.45;62.66
22018;BME280;11173;51.050;7.108;2022-11-03T20:59:33;97976.31;;;10.44;62.93
22018;BME280;11173;51.050;7.108;2022-11-03T21:04:34;97963.00;;;10.39;62.87
22018;BME280;11173;51.050;7.108;2022-11-03T21:09:35;97973.22;;;10.42;63.03
22018;BME280;11173;51.050;7.108;2022-11-03T21:14:35;97987.28;;;10.47;63.10
22018;BME280;11173;51.050;7.108;2022-11-03T21:19:36;97982.19;;;10.46;62.89
22018;BME280;11173;51.050;7.108;2022-11-03T21:24:55;97983.28;;;10.48;62.77
22018;BME280;11173;51.050;7.108;2022-11-03T21:29:55;97975.09;;;10.45;62.72
22018;BME280;11173;51.050;7.108;2022-11-03T21:34:56;97989.13;;;10.41;63.12
22018;BME280;11173;51.050;7.108;2022-11-03T21:39:56;97987.28;;;10.38;63.14
22018;BME280;11173;51.050;7.108;2022-11-03T21:44:57;98002.59;;;10.43;63.21
22018;BME280;11173;51.050;7.108;2022-11-03T21:49:57;97997.66;;;10.47;63.13
22018;BME280;11173;51.050;7.108;2022-11-03T21:55:00;97998.56;;;10.44;63.45
22018;BME280;11173;51.050;7.108;2022-11-03T22:00:00;97986.81;;;10.40;63.58
22018;BME280;11173;51.050;7.108;2022-11-03T22:05:00;98011.44;;;10.50;63.41
22018;BME280;11173;51.050;7.108;2022-11-03T22:10:01;98008.34;;;10.48;63.29
22018;BME280;11173;51.050;7.108;2022-11-03T22:15:02;98012.50;;;10.44;63.09
22018;BME280;11173;51.050;7.108;2022-11-03T22:20:22;98022.84;;;10.43;62.88
22018;BME280;11173;51.050;7.108;2022-11-03T22:25:40;98024.88;;;10.43;63.21
22018;BME280;11173;51.050;7.108;2022-11-03T22:31:02;98032.13;;;10.40;63.20
22018;BME280;11173;51.050;7.108;2022-11-03T22:36:21;98038.59;;;10.37;63.52
22018;BME280;11173;51.050;7.108;2022-11-03T22:41:25;98062.44;;;10.38;63.50
22018;BME280;11173;51.050;7.108;2022-11-03T22:46:43;98059.66;;;10.38;63.61
22018;BME280;11173;51.050;7.108;2022-11-03T22:51:44;98076.38;;;10.47;63.91
22018;BME280;11173;51.050;7.108;2022-11-03T22:56:44;98082.88;;;10.53;64.68
22018;BME280;11173;51.050;7.108;2022-11-03T23:01:44;98086.78;;;10.56;64.78
22018;BME280;11173;51.050;7.108;2022-11-03T23:06:45;98103.06;;;10.67;64.91
22018;BME280;11173;51.050;7.108;2022-11-03T23:11:45;98089.56;;;10.56;64.03
22018;BME280;11173;51.050;7.108;2022-11-03T23:16:45;98078.97;;;10.42;64.21
22018;BME280;11173;51.050;7.108;2022-11-03T23:21:48;98118.25;;;10.34;63.93
22018;BME280;11173;51.050;7.108;2022-11-03T23:26:49;98141.91;;;10.17;64.17
22018;BME280;11173;51.050;7.108;2022-11-03T23:31:50;98157.00;;;10.07;64.71
22018;BME280;11173;51.050;7.108;2022-11-03T23:36:50;98170.53;;;9.95;64.43
22018;BME280;11173;51.050;7.108;2022-11-03T23:41:51;98152.66;;;9.84;64.68
22018;BME280;11173;51.050;7.108;2022-11-03T23:46:52;98162.38;;;9.79;64.81
22018;BME280;11173;51.050;7.108;2022-11-03T23:52:11;98167.59;;;9.77;64.74
22018;BME280;11173;51.050;7.108;2022-11-03T23:57:11;98173.28;;;9.73;64.59
